Time;durP1;ratioP1;P1;durP2;ratioP2;P2;SDS_P1;SDS_P2;PMS_P1;PMS_P2;Temp;Humidity;BMP_temperature;BMP_pressure;BME280_temperature;BME280_humidity;BME280_pressure;Samples;Min_cycle;Max_cycle;Signal;HPM_P1;HPM_P2
2022/04/26 03:37:05;;;;;;;3.13;1.10;;;;;;;12.23;53.67;93616.63;5083200;28;20028;-73
2022/04/26 03:39:34;;;;;;;6.43;1.73;;;;;;;12.23;54.21;93621.16;5086156;28;20081;-73
2022/04/26 03:42:00;;;;;;;2.28;1.00;;;;;;;12.19;54.14;93614.91;5086096;28;20079;-74
2022/04/26 03:44:26;;;;;;;7.40;1.10;;;;;;;12.26;54.08;93627.75;5085982;28;20100;-74
2022/04/26 03:46:52;;;;;;;3.83;1.27;;;;;;;12.29;53.84;93624.41;5086084;28;20028;-73
2022/04/26 03:49:18;;;;;;;5.85;1.17;;;;;;;12.28;54.19;93628.97;5085856;28;20067;-73
2022/04/26 03:51:43;;;;;;;2.67;0.70;;;;;;;12.33;53.92;93628.75;5085908;28;20025;-74
2022/04/26 03:54:09;;;;;;;6.75;1.08;;;;;;;12.33;53.64;93631.44;5085852;28;20023;-73
2022/04/26 03:56:34;;;;;;;8.65;0.85;;;;;;;12.33;53.44;93628.75;5086020;28;20025;-73
2022/04/26 03:59:00;;;;;;;7.28;1.40;;;;;;;12.36;53.34;93641.47;5085710;28;20244;-73
2022/04/26 04:01:25;;;;;;;10.15;1.38;;;;;;;12.37;53.50;93631.56;5085913;28;20087;-73
2022/04/26 04:03:50;;;;;;;4.55;2.00;;;;;;;12.44;53.22;93637.94;5085513;28;20036;-73
2022/04/26 04:06:16;;;;;;;3.80;1.85;;;;;;;12.50;53.03;93643.88;5085523;28;20298;-73
2022/04/26 04:08:41;;;;;;;13.20;1.98;;;;;;;12.52;53.21;93646.22;5085492;28;20024;-73
2022/04/26 04:11:07;;;;;;;6.80;1.40;;;;;;;12.56;53.01;93644.44;5085865;28;20032;-73
2022/04/26 04:13:32;;;;;;;6.20;1.42;;;;;;;12.59;52.82;93646.44;5085462;28;20059;-73
2022/04/26 04:15:58;;;;;;;4.85;1.15;;;;;;;12.67;52.54;93644.81;5085327;28;20056;-73
2022/04/26 04:21:08;;;;;;;1.75;0.90;;;;;;;12.74;52.64;93658.41;5085188;28;20066;-74
2022/04/26 04:23:38;;;;;;;3.80;1.20;;;;;;;12.82;52.75;93662.88;5085183;28;20245;-74
2022/04/26 04:26:04;;;;;;;6.30;1.40;;;;;;;12.88;52.32;93663.44;5085376;28;20024;-74
2022/04/26 04:28:32;;;;;;;8.00;1.77;;;;;;;12.91;52.75;93660.13;5084863;28;20263;-74
2022/04/26 04:30:58;;;;;;;12.20;2.35;;;;;;;12.92;54.12;93667.03;5085137;28;20032;-74
2022/04/26 04:33:23;;;;;;;12.95;2.75;;;;;;;13.03;54.27;93676.19;5085075;28;20092;-74
2022/04/26 04:35:49;;;;;;;14.65;2.92;;;;;;;12.99;53.59;93660.00;5085366;28;20327;-73
2022/04/26 04:38:14;;;;;;;9.13;2.35;;;;;;;13.02;53.51;93666.59;5085031;28;20020;-73
2022/04/26 04:40:40;;;;;;;12.95;2.15;;;;;;;13.07;53.56;93673.63;5084920;28;20035;-74
2022/04/26 04:43:05;;;;;;;16.73;3.22;;;;;;;13.09;53.26;93677.53;5084592;28;20103;-74
2022/04/26 04:45:31;;;;;;;7.80;2.30;;;;;;;13.11;53.41;93671.84;5084837;28;20050;-73
2022/04/26 04:47:56;;;;;;;12.57;2.75;;;;;;;13.17;53.36;93673.97;5082807;28;20032;-74
2022/04/26 04:50:22;;;;;;;13.43;2.72;;;;;;;13.27;53.41;93682.66;5083009;28;20028;-73
2022/04/26 04:52:47;;;;;;;11.40;2.75;;;;;;;13.32;53.21;93683.25;5084389;28;20338;-74
2022/04/26 04:55:13;;;;;;;23.48;3.28;;;;;;;13.39;53.30;93680.81;5084510;28;20024;-74
2022/04/26 04:57:39;;;;;;;15.73;2.05;;;;;;;13.40;52.63;93681.59;5084519;28;20080;-74
2022/04/26 05:00:05;;;;;;;11.80;2.15;;;;;;;13.42;52.03;93685.50;5084671;28;20031;-81
2022/04/26 05:02:30;;;;;;;13.35;2.72;;;;;;;13.47;52.51;93689.06;5084478;28;20214;-74
2022/04/26 05:04:56;;;;;;;9.88;2.42;;;;;;;13.56;51.85;93689.75;5084344;28;20040;-75
2022/04/26 05:07:21;;;;;;;20.08;3.05;;;;;;;13.63;51.26;93689.94;5084188;28;20203;-73
2022/04/26 05:09:46;;;;;;;9.48;2.55;;;;;;;13.67;51.26;93695.44;5082617;28;20027;-72
2022/04/26 05:12:12;;;;;;;12.80;2.80;;;;;;;13.71;51.62;93699.75;5082668;28;20190;-73
2022/04/26 05:14:37;;;;;;;13.90;2.25;;;;;;;13.72;51.37;93687.94;5082655;28;20047;-75
2022/04/26 05:17:03;;;;;;;10.40;2.72;;;;;;;13.77;51.36;93694.97;5082603;28;20017;-75
2022/04/26 05:19:28;;;;;;;17.23;2.10;;;;;;;13.85;51.08;93700.19;5082612;28;20021;-75
2022/04/26 05:21:54;;;;;;;11.90;2.33;;;;;;;13.94;51.52;93704.66;5082775;28;20038;-84
2022/04/26 05:27:03;;;;;;;7.75;1.88;;;;;;;14.18;50.89;93698.47;5084344;28;20105;-81
2022/04/26 05:29:29;;;;;;;19.30;2.22;;;;;;;14.22;50.35;93694.75;5084285;28;20289;-81
2022/04/26 05:31:54;;;;;;;16.10;1.70;;;;;;;14.27;49.75;93698.31;5084342;28;20020;-82
2022/04/26 05:34:20;;;;;;;25.77;3.80;;;;;;;14.32;50.07;93703.47;5084291;28;20028;-78
2022/04/26 05:36:45;;;;;;;9.25;1.67;;;;;;;14.39;49.62;93700.97;5084294;28;20028;-78
2022/04/26 05:39:11;;;;;;;14.65;2.00;;;;;;;14.45;49.44;93696.94;5084031;28;20024;-78
2022/04/26 05:41:36;;;;;;;13.23;1.55;;;;;;;14.53;49.30;93693.34;5083978;28;20040;-79
2022/04/26 05:44:02;;;;;;;6.22;1.63;;;;;;;14.63;48.84;93702.81;5066052;28;20035;-79
2022/04/26 05:46:28;;;;;;;6.28;1.75;;;;;;;14.72;48.15;93705.34;5084203;28;20034;-79
2022/04/26 05:48:53;;;;;;;4.05;0.93;;;;;;;14.80;45.72;93712.47;5083960;28;20024;-79
2022/04/26 05:51:19;;;;;;;5.45;1.35;;;;;;;14.57;46.44;93710.34;5083885;28;20025;-79
2022/04/26 05:53:44;;;;;;;11.80;1.38;;;;;;;14.66;46.48;93698.69;5083698;28;20024;-78
2022/04/26 05:56:12;;;;;;;5.28;1.58;;;;;;;14.78;46.58;93709.34;5083726;28;20024;-80
2022/04/26 05:58:38;;;;;;;8.55;1.73;;;;;;;14.89;45.72;93705.03;5083728;28;20310;-77
2022/04/26 06:01:03;;;;;;;5.55;1.35;;;;;;;14.99;45.04;93704.53;5065249;28;20028;-75
2022/04/26 06:03:29;;;;;;;7.63;1.77;;;;;;;15.02;44.94;93713.78;5083276;28;20039;-75
2022/04/26 06:05:55;;;;;;;11.32;3.42;;;;;;;15.03;45.23;93702.72;5083488;28;20032;-76
2022/04/26 06:08:24;;;;;;;10.98;3.47;;;;;;;15.13;44.86;93700.66;5083411;28;20028;-76
2022/04/26 06:10:49;;;;;;;9.65;2.08;;;;;;;15.09;45.38;93703.25;5083567;28;20025;-77
2022/04/26 06:13:15;;;;;;;5.82;1.17;;;;;;;15.14;44.31;93700.31;5082967;28;20051;-77
2022/04/26 06:15:40;;;;;;;8.80;1.80;;;;;;;15.12;45.11;93707.13;5082989;28;20020;-75
2022/04/26 06:18:06;;;;;;;10.70;1.70;;;;;;;15.16;44.54;93695.38;5082971;28;20069;-75
2022/04/26 06:20:32;;;;;;;6.50;1.42;;;;;;;15.29;43.79;93704.13;5082944;28;20024;-74
2022/04/26 06:22:57;;;;;;;4.18;1.50;;;;;;;15.33;43.02;93690.81;5082781;28;20360;-75
2022/04/26 06:25:23;;;;;;;10.88;1.60;;;;;;;15.37;43.25;93697.03;5082804;28;20028;-74
2022/04/26 06:27:48;;;;;;;3.85;0.93;;;;;;;15.39;42.77;93695.56;5082642;28;20020;-74
2022/04/26 06:30:15;;;;;;;8.38;1.58;;;;;;;15.36;42.84;93696.22;5082681;28;20051;-75
2022/04/26 06:32:42;;;;;;;4.90;0.93;;;;;;;15.37;42.77;93692.44;5082810;28;20040;-75
2022/04/26 06:35:09;;;;;;;3.47;1.13;;;;;;;15.43;43.40;93685.69;5082630;28;20016;-74
2022/04/26 06:37:35;;;;;;;14.80;1.98;;;;;;;15.52;43.55;93682.03;5082619;28;20020;-75
2022/04/26 06:40:00;;;;;;;9.45;1.95;;;;;;;15.65;43.81;93691.53;5082608;28;20114;-75
2022/04/26 06:42:26;;;;;;;4.90;1.08;;;;;;;15.78;43.27;93679.59;5082682;28;20044;-74
2022/04/26 06:44:51;;;;;;;12.02;1.70;;;;;;;15.88;43.07;93682.88;5082181;28;20030;-75
2022/04/26 06:47:17;;;;;;;6.65;1.52;;;;;;;16.00;42.09;93680.06;5082648;28;20044;-75
2022/04/26 06:49:42;;;;;;;4.90;1.35;;;;;;;16.02;42.04;93678.59;5082311;28;20020;-76
2022/04/26 06:52:08;;;;;;;6.38;1.20;;;;;;;16.12;42.04;93681.84;5064834;28;20028;-77
2022/04/26 06:54:33;;;;;;;10.15;1.80;;;;;;;16.13;42.09;93684.19;5082556;28;20040;-75
2022/04/26 06:56:58;;;;;;;6.60;1.50;;;;;;;16.15;42.20;93675.78;5082636;28;20024;-76
2022/04/26 06:59:24;;;;;;;6.75;1.75;;;;;;;16.23;42.18;93678.25;5082307;28;20200;-76
2022/04/26 07:01:53;;;;;;;10.13;2.10;;;;;;;16.30;41.90;93666.84;5082580;28;20135;-76
2022/04/26 07:04:21;;;;;;;10.23;1.20;;;;;;;16.34;41.77;93675.00;5082497;28;20020;-76
2022/04/26 07:06:47;;;;;;;8.73;1.35;;;;;;;16.44;41.82;93672.53;5082370;28;20036;-76
2022/04/26 07:09:13;;;;;;;7.72;1.60;;;;;;;16.54;41.36;93665.78;5082715;28;20200;-77
2022/04/26 07:11:39;;;;;;;6.20;1.85;;;;;;;16.66;40.34;93675.63;5081485;28;20043;-76
2022/04/26 07:14:05;;;;;;;2.80;1.25;;;;;;;16.69;40.38;93674.94;5064605;28;20044;-75
2022/04/26 07:16:31;;;;;;;12.40;1.48;;;;;;;16.73;40.44;93673.09;5082552;28;20027;-77
2022/04/26 07:18:56;;;;;;;8.77;1.30;;;;;;;16.75;40.21;93670.03;5082364;28;20048;-73
2022/04/26 07:21:21;;;;;;;6.68;1.30;;;;;;;16.80;40.02;93673.22;5081993;28;20137;-74
2022/04/26 07:23:47;;;;;;;6.82;1.50;;;;;;;16.89;40.37;93670.31;5082020;28;20021;-75
2022/04/26 07:26:13;;;;;;;6.35;1.65;;;;;;;17.00;39.69;93671.28;5082107;28;20263;-75
2022/04/26 07:28:39;;;;;;;7.20;1.80;;;;;;;17.10;39.90;93675.31;5082017;28;20040;-74
2022/04/26 07:31:05;;;;;;;5.38;1.38;;;;;;;17.20;39.10;93668.56;5082012;28;20036;-74
2022/04/26 07:36:14;;;;;;;5.65;1.20;;;;;;;17.44;38.39;93670.88;5082398;28;20024;-76
2022/04/26 07:38:40;;;;;;;4.35;1.35;;;;;;;17.59;39.21;93679.97;5081856;28;20091;-75
2022/04/26 07:41:07;;;;;;;6.57;1.10;;;;;;;17.72;39.24;93677.84;5081793;28;20016;-74
2022/04/26 07:43:33;;;;;;;4.18;1.30;;;;;;;17.82;38.92;93677.22;5081816;28;20087;-74
2022/04/26 07:45:58;;;;;;;5.88;1.45;;;;;;;17.94;38.19;93681.66;5082016;28;20021;-74
2022/04/26 07:48:25;;;;;;;5.80;1.35;;;;;;;18.03;38.27;93681.38;5081731;28;20093;-75
2022/04/26 07:50:51;;;;;;;9.55;1.42;;;;;;;18.13;37.78;93679.97;5081954;28;20023;-74
2022/04/26 07:53:16;;;;;;;10.65;1.35;;;;;;;18.23;37.46;93680.13;5081902;28;20032;-75
2022/04/26 07:55:42;;;;;;;10.68;1.50;;;;;;;18.36;37.25;93671.78;5081780;28;20027;-75
2022/04/26 07:58:08;;;;;;;10.77;2.80;;;;;;;18.42;37.33;93668.44;5081514;28;20303;-77
2022/04/26 08:00:33;;;;;;;9.30;1.20;;;;;;;18.42;36.85;93675.75;5082336;28;20016;-76
2022/04/26 08:03:00;;;;;;;11.63;1.83;;;;;;;18.47;36.66;93674.63;5082176;28;20188;-79
2022/04/26 08:05:25;;;;;;;8.85;1.60;;;;;;;18.54;37.71;93672.81;5082100;28;20286;-80
2022/04/26 08:07:51;;;;;;;7.13;1.63;;;;;;;18.66;38.04;93669.06;5081806;28;20027;-78
2022/04/26 08:10:16;;;;;;;19.13;1.92;;;;;;;18.77;38.49;93674.59;5082323;28;20027;-77
2022/04/26 08:12:43;;;;;;;13.85;1.70;;;;;;;18.82;38.31;93675.06;5082103;28;20318;-77
2022/04/26 08:15:10;;;;;;;3.85;1.73;;;;;;;18.86;37.39;93672.41;5081613;28;20020;-71
2022/04/26 08:17:36;;;;;;;18.05;3.05;;;;;;;18.78;37.29;93671.50;5081650;28;20261;-72
2022/04/26 08:20:04;;;;;;;10.88;1.80;;;;;;;18.86;37.91;93661.59;5063854;28;20059;-73
2022/04/26 08:22:30;;;;;;;5.65;1.58;;;;;;;19.00;38.36;93677.19;5082459;28;20074;-73
2022/04/26 08:27:40;;;;;;;10.27;2.10;;;;;;;18.99;37.95;93670.22;5084700;28;20031;-72
2022/04/26 08:30:06;;;;;;;10.82;2.67;;;;;;;18.94;38.38;93665.16;5085072;28;20218;-73
2022/04/26 08:32:46;;;;;;;6.07;1.80;;;;;;;18.99;39.05;93667.50;5085245;28;20059;-72
2022/04/26 08:35:18;;;;;;;6.72;1.90;;;;;;;19.15;39.62;93667.28;5084745;28;20062;-72
2022/04/26 08:37:43;;;;;;;12.23;2.40;;;;;;;19.28;38.59;93676.69;5084840;28;20032;-72
2022/04/26 08:40:09;;;;;;;15.32;2.20;;;;;;;19.40;38.85;93668.28;5084829;28;20214;-71
2022/04/26 08:42:42;;;;;;;12.82;2.45;;;;;;;19.42;38.10;93667.94;5084968;28;20020;-72
2022/04/26 08:45:10;;;;;;;12.93;2.70;;;;;;;19.51;38.35;93664.91;5084669;28;20021;-70
2022/04/26 08:53:08;;;;;;;19.33;3.10;;;;;;;19.66;37.55;93663.84;5084588;28;20067;-71
2022/04/26 08:55:41;;;;;;;9.82;2.15;;;;;;;19.74;37.69;93657.41;5084589;28;20048;-71
2022/04/26 08:58:08;;;;;;;13.82;2.88;;;;;;;19.86;37.86;93660.94;5084362;28;20020;-72
2022/04/26 09:00:34;;;;;;;18.48;2.28;;;;;;;19.96;37.73;93660.22;5084533;28;20047;-73
2022/04/26 09:03:02;;;;;;;7.88;2.35;;;;;;;20.05;37.67;93663.38;5084371;28;20310;-72
2022/04/26 09:05:27;;;;;;;21.17;3.42;;;;;;;20.15;37.42;93654.56;5084258;28;20286;-73
2022/04/26 09:07:53;;;;;;;13.07;2.53;;;;;;;20.29;37.33;93653.06;5084405;28;20031;-76
2022/04/26 09:10:20;;;;;;;10.63;2.28;;;;;;;20.40;36.36;93656.59;5084280;28;20020;-74
2022/04/26 09:13:08;;;;;;;14.82;2.80;;;;;;;20.50;35.72;93664.00;5083966;28;20024;-72
2022/04/26 09:15:38;;;;;;;16.60;3.47;;;;;;;20.47;35.82;93650.44;5084137;28;20338;-72
2022/04/26 09:18:15;;;;;;;10.73;2.78;;;;;;;20.52;36.15;93656.25;5084287;28;20218;-73
2022/04/26 09:20:42;;;;;;;9.35;2.35;;;;;;;20.59;35.15;93653.59;5083824;28;20054;-73
2022/04/26 09:23:34;;;;;;;14.13;3.72;;;;;;;20.73;35.94;93652.09;5083899;28;20394;-72
2022/04/26 09:26:00;;;;;;;14.68;3.58;;;;;;;20.79;36.25;93648.63;5082698;28;20040;-73
2022/04/26 09:28:29;;;;;;;13.60;2.83;;;;;;;20.90;35.95;93648.66;5083930;28;20052;-73
2022/04/26 09:30:55;;;;;;;17.52;3.05;;;;;;;20.89;35.56;93649.81;5083761;28;20323;-73
2022/04/26 09:33:43;;;;;;;20.77;3.03;;;;;;;20.90;35.76;93656.78;5083750;28;20372;-73
2022/04/26 09:36:10;;;;;;;15.27;2.67;;;;;;;21.01;35.52;93651.41;5083474;28;20211;-73
2022/04/26 09:38:37;;;;;;;18.63;3.28;;;;;;;21.00;34.78;93647.94;5083635;28;20020;-73
2022/04/26 09:41:05;;;;;;;22.65;2.90;;;;;;;20.84;35.32;93647.47;5083681;28;20263;-72
2022/04/26 09:43:31;;;;;;;18.70;3.30;;;;;;;20.82;34.70;93644.38;5083200;28;20251;-73
2022/04/26 09:45:58;;;;;;;12.85;2.65;;;;;;;20.79;35.39;93637.03;5081536;28;20330;-74
2022/04/26 09:48:51;;;;;;;14.90;2.38;;;;;;;20.78;34.88;93630.06;5081516;28;20029;-73
2022/04/26 09:51:17;;;;;;;17.80;3.50;;;;;;;20.79;35.45;93643.22;5080980;28;20032;-73
2022/04/26 09:53:42;;;;;;;15.85;3.03;;;;;;;20.78;35.70;93643.59;5081487;28;20023;-73
2022/04/26 09:56:10;;;;;;;11.55;3.25;;;;;;;20.81;36.66;93632.78;5081528;28;20024;-73
2022/04/26 09:58:38;;;;;;;14.77;2.25;;;;;;;21.01;36.57;93638.63;5081403;28;20238;-73
2022/04/26 10:01:06;;;;;;;12.90;2.70;;;;;;;21.19;35.87;93630.53;5082167;28;20095;-73
2022/04/26 10:03:36;;;;;;;13.07;2.67;;;;;;;21.36;35.79;93637.13;5083265;28;20078;-73
2022/04/26 10:06:05;;;;;;;17.48;3.10;;;;;;;21.51;35.57;93626.28;5083478;28;20024;-73
2022/04/26 10:08:32;;;;;;;5.80;2.05;;;;;;;21.63;34.90;93618.53;5065358;28;20020;-73
2022/04/26 10:11:00;;;;;;;9.07;2.97;;;;;;;21.71;34.77;93632.88;5082706;28;20016;-73
2022/04/26 10:13:32;;;;;;;18.77;2.80;;;;;;;21.82;33.20;93614.66;5083032;28;20310;-73
2022/04/26 10:16:00;;;;;;;10.07;2.60;;;;;;;21.98;33.50;93610.72;5082838;28;20030;-73
2022/04/26 10:18:43;;;;;;;19.63;3.28;;;;;;;22.06;32.99;93623.09;5082851;28;20085;-72
2022/04/26 10:21:11;;;;;;;21.58;2.67;;;;;;;22.18;32.53;93613.78;5082803;28;20062;-73
2022/04/26 10:23:51;;;;;;;11.07;2.33;;;;;;;22.14;31.73;93621.16;5082515;28;20128;-73
2022/04/26 10:26:23;;;;;;;8.73;2.05;;;;;;;21.94;31.68;93612.69;5082709;28;20020;-73
2022/04/26 10:28:51;;;;;;;14.70;2.50;;;;;;;21.94;32.22;93615.38;5082325;28;20124;-73
2022/04/26 10:31:17;;;;;;;17.23;2.33;;;;;;;21.97;32.57;93611.91;5082476;28;20047;-73
2022/04/26 10:33:46;;;;;;;10.98;2.50;;;;;;;22.05;31.67;93610.72;5082501;28;20025;-73
2022/04/26 10:36:21;;;;;;;14.43;2.40;;;;;;;22.09;31.80;93602.56;5082525;28;20028;-73
2022/04/26 10:39:09;;;;;;;11.82;2.47;;;;;;;22.02;31.48;93604.16;5082546;28;20256;-73
2022/04/26 10:41:45;;;;;;;14.32;2.60;;;;;;;21.91;31.36;93599.91;5079036;28;20107;-73
2022/04/26 10:44:15;;;;;;;15.95;2.33;;;;;;;21.75;32.26;93598.38;5082192;28;20028;-73
2022/04/26 10:46:42;;;;;;;12.70;2.03;;;;;;;21.76;32.44;93591.81;5082341;28;20032;-73
2022/04/26 10:49:25;;;;;;;16.38;2.05;;;;;;;21.62;32.65;93598.00;5082359;28;20091;-73
2022/04/26 10:51:53;;;;;;;10.18;2.00;;;;;;;21.52;32.14;93592.59;5082393;28;20044;-72
2022/04/26 10:54:46;;;;;;;14.07;2.65;;;;;;;21.51;32.55;93596.47;5082565;28;20020;-75
2022/04/26 10:57:16;;;;;;;21.05;1.77;;;;;;;21.58;33.83;93588.34;5082185;28;20059;-85
2022/04/26 10:59:43;;;;;;;17.65;2.72;;;;;;;21.69;34.60;93583.66;5082168;28;20027;-72
2022/04/26 11:02:11;;;;;;;21.98;2.28;;;;;;;21.97;34.53;93587.47;5083533;28;20087;-71
2022/04/26 11:04:37;;;;;;;18.88;2.80;;;;;;;22.18;33.34;93586.63;5082044;28;20021;-73
2022/04/26 11:07:13;;;;;;;12.60;2.30;;;;;;;22.42;32.12;93583.06;5082527;28;20135;-71
2022/04/26 11:09:53;;;;;;;7.93;2.15;;;;;;;22.67;31.29;93584.13;5082161;28;20275;-72
2022/04/26 11:12:21;;;;;;;10.20;2.50;;;;;;;22.84;30.14;93585.97;5082174;28;20024;-72
2022/04/26 11:14:48;;;;;;;10.27;2.85;;;;;;;23.07;30.75;93576.53;5082288;28;20047;-73
2022/04/26 11:17:15;;;;;;;12.93;2.63;;;;;;;23.26;30.12;93569.78;5082138;28;20200;-73
2022/04/26 11:19:55;;;;;;;10.57;2.70;;;;;;;23.39;30.18;93571.63;5082116;28;20059;-73
2022/04/26 11:22:22;;;;;;;14.45;2.22;;;;;;;23.47;30.06;93566.09;5082101;28;20099;-73
2022/04/26 11:30:25;;;;;;;12.93;2.33;;;;;;;24.02;28.80;93570.66;5081835;28;20063;-73
2022/04/26 11:32:51;;;;;;;8.23;2.13;;;;;;;24.19;28.03;93577.06;5081825;28;20103;-72
2022/04/26 11:35:19;;;;;;;16.15;3.60;;;;;;;24.28;28.28;93566.44;5081975;28;20036;-68
2022/04/26 11:37:47;;;;;;;10.38;2.33;;;;;;;24.31;27.94;93568.38;5081518;28;20040;-71
2022/04/26 11:40:25;;;;;;;8.73;1.70;;;;;;;24.39;27.61;93569.06;5081812;28;20028;-72
2022/04/26 11:42:50;;;;;;;13.07;1.95;;;;;;;24.31;27.20;93562.94;5081818;28;20036;-71
2022/04/26 11:45:17;;;;;;;11.65;2.03;;;;;;;24.46;26.73;93552.63;5081591;28;20035;-70
2022/04/26 11:47:51;;;;;;;12.45;2.50;;;;;;;24.52;27.25;93553.72;5081651;28;20094;-71
2022/04/26 11:50:20;;;;;;;13.98;2.17;;;;;;;24.41;27.67;93561.25;5081649;28;20052;-71
2022/04/26 11:52:48;;;;;;;16.88;2.28;;;;;;;24.49;28.71;93545.59;5081578;28;20070;-71
2022/04/26 11:55:22;;;;;;;18.05;2.30;;;;;;;24.59;29.23;93550.94;5081633;28;20092;-71
2022/04/26 11:57:48;;;;;;;17.65;5.07;;;;;;;24.61;28.13;93543.13;5082708;28;20134;-71
2022/04/26 12:00:19;;;;;;;12.05;2.58;;;;;;;24.58;27.29;93554.06;5085378;28;20047;-72
2022/04/26 12:02:50;;;;;;;10.45;1.85;;;;;;;24.44;26.60;93538.63;5085700;28;20230;-71
2022/04/26 12:05:20;;;;;;;34.08;2.78;;;;;;;24.36;26.44;93529.00;5085653;28;20064;-72
2022/04/26 12:07:46;;;;;;;10.23;1.90;;;;;;;24.33;25.75;93536.06;5085172;28;20307;-72
2022/04/26 12:10:29;;;;;;;7.68;1.90;;;;;;;24.33;25.48;93538.00;5085423;28;20047;-71
2022/04/26 12:13:02;;;;;;;6.40;1.20;;;;;;;24.25;25.18;93526.44;5085502;28;20024;-71
2022/04/26 12:15:32;;;;;;;6.07;1.30;;;;;;;24.19;25.04;93530.78;5085167;28;20036;-73
2022/04/26 12:18:09;;;;;;;6.10;1.88;;;;;;;24.16;25.24;93537.84;5085236;28;20024;-70
2022/04/26 12:20:56;;;;;;;13.27;2.63;;;;;;;24.26;26.98;93536.13;5085416;28;20028;-70
2022/04/26 12:23:23;;;;;;;7.15;1.35;;;;;;;24.43;27.15;93532.41;5084805;28;20033;-69
2022/04/26 12:25:53;;;;;;;5.90;1.77;;;;;;;24.65;25.99;93534.91;5085072;28;20042;-69
2022/04/26 12:28:19;;;;;;;11.25;2.25;;;;;;;24.73;25.34;93530.09;5084736;28;20062;-69
2022/04/26 12:30:44;;;;;;;13.00;2.53;;;;;;;24.78;25.00;93529.66;5084977;28;20111;-69
2022/04/26 12:33:10;;;;;;;8.93;2.38;;;;;;;24.70;25.71;93522.75;5084987;28;20066;-68
2022/04/26 12:35:35;;;;;;;22.20;3.00;;;;;;;24.69;25.94;93521.19;5085108;28;20044;-69
2022/04/26 12:38:10;;;;;;;16.52;2.65;;;;;;;24.68;25.65;93525.13;5084860;28;20025;-68
2022/04/26 12:40:36;;;;;;;12.77;2.50;;;;;;;24.68;25.44;93525.13;5085358;28;20032;-69
2022/04/26 12:43:03;;;;;;;12.52;2.78;;;;;;;24.63;25.01;93535.31;5084627;28;20091;-69
2022/04/26 12:45:28;;;;;;;16.60;2.20;;;;;;;24.62;25.57;93530.25;5084602;28;20090;-79
2022/04/26 12:50:48;;;;;;;10.57;2.63;;;;;;;26.02;23.29;93522.53;5083649;28;20047;-74
2022/04/26 12:53:40;;;;;;;10.77;1.40;;;;;;;27.46;22.84;93519.41;5084713;28;20017;-76
2022/04/26 12:56:08;;;;;;;15.63;2.95;;;;;;;28.51;23.23;93515.44;5084553;28;20114;-91
2022/04/26 12:58:38;;;;;;;19.63;2.47;;;;;;;29.53;21.48;93509.16;5067635;28;20100;-82
2022/04/26 13:01:06;;;;;;;21.98;2.83;;;;;;;30.79;21.13;93511.00;5084995;28;20031;-75
2022/04/26 13:03:32;;;;;;;12.07;2.53;;;;;;;30.51;21.61;93519.13;5084985;28;20043;-76
2022/04/26 13:06:15;;;;;;;12.32;2.45;;;;;;;29.92;22.21;93518.06;5084687;28;20039;-75
2022/04/26 13:08:46;;;;;;;20.63;2.65;;;;;;;29.55;22.05;93523.22;5083959;28;20028;-75
2022/04/26 13:11:12;;;;;;;10.57;3.08;;;;;;;29.19;22.52;93522.41;5084272;28;20028;-74
2022/04/26 13:13:41;;;;;;;20.58;2.53;;;;;;;28.83;23.01;93530.94;5084473;28;20059;-75
2022/04/26 13:16:08;;;;;;;12.23;4.63;;;;;;;28.64;23.35;93529.16;5084757;28;20028;-75
2022/04/26 13:18:34;;;;;;;17.27;3.33;;;;;;;28.52;23.23;93528.72;5084688;28;20028;-74
2022/04/26 13:21:01;;;;;;;15.68;4.03;;;;;;;28.38;23.32;93529.88;5084214;28;20021;-73
2022/04/26 13:23:29;;;;;;;14.95;4.50;;;;;;;28.18;23.29;93538.25;5084438;28;20035;-74
2022/04/26 13:25:55;;;;;;;10.27;3.75;;;;;;;27.88;23.45;93546.91;5066431;28;20372;-73
2022/04/26 13:28:21;;;;;;;24.95;4.28;;;;;;;27.70;23.69;93545.41;5084336;28;20074;-75
2022/04/26 13:30:46;;;;;;;19.85;2.88;;;;;;;27.53;23.68;93549.34;5084179;28;20242;-74
2022/04/26 13:33:12;;;;;;;10.00;3.03;;;;;;;27.34;24.04;93549.00;5084126;28;20024;-74
2022/04/26 13:35:38;;;;;;;8.98;2.67;;;;;;;27.32;24.55;93548.69;5084279;28;20088;-77
2022/04/26 13:38:08;;;;;;;18.05;4.38;;;;;;;27.01;24.56;93548.97;5084847;28;20032;-76
2022/04/26 13:40:35;;;;;;;8.70;2.83;;;;;;;26.90;25.33;93556.66;5084165;28;20031;-75
2022/04/26 13:43:01;;;;;;;12.00;3.30;;;;;;;26.92;25.35;93550.75;5083821;28;20048;-75
2022/04/26 13:45:27;;;;;;;12.18;2.95;;;;;;;26.92;25.22;93554.25;5083924;28;20024;-77
2022/04/26 13:47:53;;;;;;;16.23;2.47;;;;;;;26.80;26.34;93547.47;5084097;28;20107;-79
2022/04/26 13:50:18;;;;;;;11.35;3.28;;;;;;;26.75;27.19;93544.50;5084022;28;20091;-75
2022/04/26 13:52:44;;;;;;;9.27;2.72;;;;;;;26.65;27.62;93545.50;5083816;28;20089;-77
2022/04/26 13:55:11;;;;;;;8.23;2.85;;;;;;;26.64;27.92;93535.75;5084108;28;20035;-79
2022/04/26 13:57:39;;;;;;;10.90;3.42;;;;;;;26.71;28.42;93530.13;5083875;28;20059;-77
2022/04/26 14:00:05;;;;;;;9.02;2.83;;;;;;;26.71;27.97;93535.59;5083945;28;20044;-77
2022/04/26 14:02:31;;;;;;;12.00;2.50;;;;;;;26.71;27.57;93541.84;5083511;28;20055;-76
2022/04/26 14:04:56;;;;;;;6.85;1.85;;;;;;;26.75;28.21;93553.47;5083781;28;20016;-77
2022/04/26 14:07:22;;;;;;;9.90;2.35;;;;;;;26.77;28.91;93555.78;5083564;28;20040;-77
2022/04/26 14:09:48;;;;;;;19.15;2.42;;;;;;;26.88;27.56;93567.22;5083923;28;20056;-75
2022/04/26 14:12:17;;;;;;;8.55;1.70;;;;;;;27.19;27.12;93561.47;5065819;28;20031;-80
2022/04/26 14:22:55;;;;;;;4.57;1.13;;;;;;;29.00;23.76;93590.00;5083516;28;20062;-78
2022/04/26 14:25:20;;;;;;;13.65;1.70;;;;;;;28.79;23.53;93604.34;5083515;28;20016;-76
2022/04/26 14:27:47;;;;;;;5.38;1.58;;;;;;;28.42;24.81;93612.00;5083086;28;20049;-78
2022/04/26 14:30:13;;;;;;;10.85;1.60;;;;;;;28.10;24.82;93616.38;5065603;28;20016;-78
2022/04/26 14:32:39;;;;;;;4.15;1.60;;;;;;;27.55;25.26;93629.81;5083546;28;20035;-79
2022/04/26 14:35:05;;;;;;;9.10;1.50;;;;;;;27.13;26.09;93637.00;5082316;28;20020;-78
2022/04/26 14:37:33;;;;;;;8.35;1.65;;;;;;;26.66;26.39;93646.19;5083094;28;20016;-82
2022/04/26 14:39:58;;;;;;;5.50;2.03;;;;;;;26.06;27.92;93657.06;5083223;28;20088;-79
2022/04/26 14:42:23;;;;;;;9.43;1.85;;;;;;;25.78;27.52;93650.09;5083011;28;20219;-80
2022/04/26 14:44:49;;;;;;;10.68;1.25;;;;;;;25.30;28.70;93662.91;5083363;28;20035;-81
2022/04/26 14:47:15;;;;;;;6.10;1.67;;;;;;;25.05;28.66;93657.00;5083101;28;20016;-77
2022/04/26 14:49:41;;;;;;;5.95;1.55;;;;;;;24.68;29.23;93662.13;5083001;28;20085;-76
2022/04/26 14:52:07;;;;;;;5.63;1.65;;;;;;;24.35;29.76;93666.38;5083080;28;20064;-75
2022/04/26 14:54:34;;;;;;;13.15;1.58;;;;;;;23.88;29.99;93688.59;5082952;28;20024;-85
2022/04/26 14:57:00;;;;;;;11.10;1.10;;;;;;;23.33;30.46;93681.22;5083076;28;20375;-83
2022/04/26 14:59:25;;;;;;;6.70;1.38;;;;;;;22.77;31.28;93698.16;5083069;28;20044;-84
2022/04/26 15:01:52;;;;;;;4.63;1.20;;;;;;;22.31;31.56;93704.53;5082980;28;20024;-80
2022/04/26 15:04:23;;;;;;;4.57;0.70;;;;;;;21.47;32.64;93706.84;5082626;28;20081;-82
2022/04/26 15:06:49;;;;;;;3.22;1.15;;;;;;;20.72;33.34;93707.41;5082973;28;20028;-82
2022/04/26 15:17:32;;;;;;;2.80;0.98;;;;;;;18.87;38.12;93708.28;5083087;28;20158;-84
2022/04/26 15:19:57;;;;;;;3.85;0.70;;;;;;;19.77;36.20;93713.41;5064906;28;20092;-84
2022/04/26 15:22:24;;;;;;;1.40;0.60;;;;;;;20.35;35.04;93706.47;5082785;28;20416;-75
2022/04/26 15:24:51;;;;;;;8.20;0.63;;;;;;;20.16;35.39;93710.19;5082781;28;20230;-75
2022/04/26 15:27:18;;;;;;;1.83;1.00;;;;;;;20.00;35.75;93712.41;5082733;28;20099;-81
2022/04/26 15:29:44;;;;;;;5.82;0.90;;;;;;;19.82;36.06;93720.41;5082446;28;20059;-86
2022/04/26 15:32:11;;;;;;;1.90;0.60;;;;;;;20.27;36.05;93725.72;5064955;28;20475;-81
2022/04/26 15:34:37;;;;;;;4.72;0.77;;;;;;;21.24;34.13;93721.50;5086959;28;20020;-82
2022/04/26 15:37:04;;;;;;;7.43;1.52;;;;;;;22.53;31.20;93726.97;5086778;28;20021;-82
2022/04/26 15:39:30;;;;;;;3.22;0.80;;;;;;;23.27;30.20;93721.66;5086632;28;20020;-86
2022/04/26 15:41:59;;;;;;;4.18;0.80;;;;;;;23.52;29.83;93726.16;5086578;28;20130;-81
2022/04/26 15:44:25;;;;;;;6.15;0.90;;;;;;;23.63;29.46;93714.03;5086654;28;20090;-84
2022/04/26 15:46:52;;;;;;;4.93;1.65;;;;;;;23.36;29.79;93705.66;5086746;28;20024;-84
2022/04/26 15:49:19;;;;;;;2.53;0.90;;;;;;;23.01;30.43;93707.41;5069136;28;20370;-85